MMM85WE ULLI-EFHK
Flight info
| Callsign | MMM85WE |
|---|---|
| Flight time | 0h 42m |
| Altitude | 26000 |
| Route | TURAL1A TURAL T561 LEDUN/N0384F260 DCT ROPAM |
| Aircraft | A320/M-SDE3FGHIRWY/LB1 |
Departure
| Time | 2026-04-26 19:44 |
|---|---|
| Airport | Pulkovo Airport (ULLI) |
Arrival
| Time | 2026-04-26 20:27 |
|---|---|
| Airport | Helsinki Vantaa Airport (EFHK) |
| Time | Latitude | Longitude | Altitude | Speed | Heading |
|---|---|---|---|---|---|
| 2026-04-26 19:08 | 59.80193 | 30.26512 | 77 ft | 0 kts | 286° |
| 2026-04-26 19:35 | 59.80198 | 30.26478 | 73 ft | 7 kts | 286° |
| 2026-04-26 19:35 | 59.80238 | 30.26398 | 69 ft | 11 kts | 2° |
| 2026-04-26 19:35 | 59.80314 | 30.26437 | 76 ft | 13 kts | 11° |
| 2026-04-26 19:36 | 59.80406 | 30.26465 | 75 ft | 12 kts | 15° |
| 2026-04-26 19:36 | 59.80424 | 30.26480 | 75 ft | 9 kts | 28° |
| 2026-04-26 19:36 | 59.80424 | 30.26692 | 70 ft | 10 kts | 107° |
| 2026-04-26 19:36 | 59.80405 | 30.26820 | 69 ft | 10 kts | 107° |
| 2026-04-26 19:37 | 59.80386 | 30.26945 | 70 ft | 9 kts | 107° |
| 2026-04-26 19:37 | 59.80368 | 30.27065 | 70 ft | 9 kts | 107° |
| 2026-04-26 19:37 | 59.80350 | 30.27185 | 75 ft | 10 kts | 106° |
| 2026-04-26 19:37 | 59.80325 | 30.27354 | 73 ft | 15 kts | 106° |
| 2026-04-26 19:38 | 59.80290 | 30.27585 | 75 ft | 19 kts | 107° |
| 2026-04-26 19:38 | 59.80249 | 30.27860 | 75 ft | 23 kts | 106° |
| 2026-04-26 19:38 | 59.80201 | 30.28186 | 72 ft | 27 kts | 105° |
| 2026-04-26 19:38 | 59.80144 | 30.28564 | 67 ft | 30 kts | 107° |
| 2026-04-26 19:39 | 59.80087 | 30.28949 | 67 ft | 31 kts | 106° |
| 2026-04-26 19:39 | 59.80026 | 30.29361 | 70 ft | 25 kts | 107° |
| 2026-04-26 19:39 | 59.79973 | 30.29711 | 71 ft | 19 kts | 107° |
| 2026-04-26 19:39 | 59.79940 | 30.29956 | 66 ft | 16 kts | 96° |
| 2026-04-26 19:40 | 59.79988 | 30.30126 | 67 ft | 0 kts | 46° |
| 2026-04-26 19:40 | 59.79989 | 30.30129 | 68 ft | 0 kts | 46° |
| 2026-04-26 19:40 | 59.79990 | 30.30132 | 68 ft | 0 kts | 46° |
| 2026-04-26 19:40 | 59.79993 | 30.30137 | 69 ft | 2 kts | 46° |
| 2026-04-26 19:41 | 59.80018 | 30.30191 | 68 ft | 9 kts | 47° |
| 2026-04-26 19:41 | 59.80081 | 30.30291 | 71 ft | 14 kts | 27° |
| 2026-04-26 19:41 | 59.80121 | 30.30273 | 69 ft | 0 kts | 289° |
| 2026-04-26 19:41 | 59.80121 | 30.30271 | 69 ft | 1 kts | 289° |
| 2026-04-26 19:42 | 59.80123 | 30.30262 | 69 ft | 2 kts | 290° |
| 2026-04-26 19:42 | 59.80124 | 30.30256 | 69 ft | 0 kts | 290° |
| 2026-04-26 19:43 | 59.80128 | 30.30235 | 69 ft | 6 kts | 290° |
| 2026-04-26 19:43 | 59.80215 | 30.29657 | 73 ft | 88 kts | 286° |
| 2026-04-26 19:44 | 59.80450 | 30.28030 | 115 ft | 150 kts | 284° |
| 2026-04-26 19:44 | 59.80625 | 30.26724 | 642 ft | 145 kts | 286° |
| 2026-04-26 19:44 | 59.80878 | 30.24802 | 1586 ft | 145 kts | 291° |
| 2026-04-26 19:44 | 59.81149 | 30.22700 | 2078 ft | 168 kts | 298° |
| 2026-04-26 19:45 | 59.81530 | 30.20331 | 2536 ft | 192 kts | 298° |
| 2026-04-26 19:45 | 59.81972 | 30.17629 | 3104 ft | 219 kts | 297° |
| 2026-04-26 19:45 | 59.82460 | 30.14579 | 3842 ft | 242 kts | 295° |
| 2026-04-26 19:45 | 59.82962 | 30.11301 | 4905 ft | 251 kts | 293° |
| 2026-04-26 19:46 | 59.83457 | 30.07938 | 6113 ft | 254 kts | 293° |
| 2026-04-26 19:46 | 59.83949 | 30.04524 | 7235 ft | 259 kts | 292° |
| 2026-04-26 19:46 | 59.84419 | 30.01012 | 8289 ft | 269 kts | 286° |
| 2026-04-26 19:46 | 59.84464 | 29.97239 | 9353 ft | 285 kts | 268° |
| 2026-04-26 19:47 | 59.83896 | 29.93363 | 10313 ft | 302 kts | 251° |
| 2026-04-26 19:47 | 59.83290 | 29.90722 | 10683 ft | 318 kts | 250° |
| 2026-04-26 19:47 | 59.82016 | 29.85225 | 11586 ft | 338 kts | 250° |
| 2026-04-26 19:47 | 59.81014 | 29.80955 | 12574 ft | 343 kts | 250° |
| 2026-04-26 19:48 | 59.79995 | 29.76631 | 13531 ft | 348 kts | 250° |
| 2026-04-26 19:48 | 59.78959 | 29.72245 | 14377 ft | 353 kts | 250° |
| 2026-04-26 19:48 | 59.77909 | 29.67803 | 15223 ft | 357 kts | 249° |
| 2026-04-26 19:48 | 59.76850 | 29.63312 | 16057 ft | 362 kts | 249° |
| 2026-04-26 19:49 | 59.75775 | 29.58755 | 16936 ft | 365 kts | 249° |
| 2026-04-26 19:49 | 59.74691 | 29.54167 | 17798 ft | 369 kts | 249° |
| 2026-04-26 19:49 | 59.73594 | 29.49533 | 18547 ft | 373 kts | 249° |
| 2026-04-26 19:49 | 59.72836 | 29.46336 | 19040 ft | 376 kts | 249° |
| 2026-04-26 19:50 | 59.71914 | 29.42451 | 19623 ft | 379 kts | 249° |
| 2026-04-26 19:50 | 59.70783 | 29.37695 | 20327 ft | 382 kts | 248° |
| 2026-04-26 19:50 | 59.69659 | 29.32983 | 21071 ft | 385 kts | 247° |
| 2026-04-26 19:51 | 59.68512 | 29.28178 | 21762 ft | 388 kts | 249° |
| 2026-04-26 19:51 | 59.67353 | 29.23333 | 22467 ft | 391 kts | 246° |
| 2026-04-26 19:51 | 59.66181 | 29.18467 | 23175 ft | 393 kts | 247° |
| 2026-04-26 19:51 | 59.64999 | 29.13571 | 23760 ft | 396 kts | 248° |
| 2026-04-26 19:52 | 59.63896 | 29.08559 | 24269 ft | 397 kts | 255° |
| 2026-04-26 19:52 | 59.63234 | 29.03280 | 24782 ft | 396 kts | 264° |
| 2026-04-26 19:52 | 59.63074 | 28.97861 | 25286 ft | 395 kts | 275° |
| 2026-04-26 19:52 | 59.63397 | 28.92469 | 25637 ft | 395 kts | 284° |
| 2026-04-26 19:53 | 59.63975 | 28.87199 | 25705 ft | 385 kts | 285° |
| 2026-04-26 19:53 | 59.64532 | 28.82102 | 25723 ft | 376 kts | 284° |
| 2026-04-26 19:53 | 59.65082 | 28.77079 | 25723 ft | 372 kts | 286° |
| 2026-04-26 19:53 | 59.65628 | 28.72090 | 25709 ft | 371 kts | 285° |
| 2026-04-26 19:54 | 59.66169 | 28.67096 | 25725 ft | 372 kts | 285° |
| 2026-04-26 19:54 | 59.66706 | 28.62092 | 25726 ft | 372 kts | 285° |
| 2026-04-26 19:54 | 59.67242 | 28.57075 | 25730 ft | 371 kts | 283° |
| 2026-04-26 19:54 | 59.67773 | 28.52079 | 25741 ft | 370 kts | 285° |
| 2026-04-26 19:55 | 59.68300 | 28.47091 | 25738 ft | 370 kts | 286° |
| 2026-04-26 19:55 | 59.68824 | 28.42124 | 25737 ft | 368 kts | 285° |
| 2026-04-26 19:55 | 59.69345 | 28.37159 | 25740 ft | 368 kts | 284° |
| 2026-04-26 19:55 | 59.69855 | 28.32266 | 25745 ft | 368 kts | 286° |
| 2026-04-26 19:56 | 59.70381 | 28.27235 | 25743 ft | 368 kts | 283° |
| 2026-04-26 19:56 | 59.70893 | 28.22332 | 25741 ft | 369 kts | 284° |
| 2026-04-26 19:56 | 59.71415 | 28.17347 | 25744 ft | 369 kts | 285° |
| 2026-04-26 19:56 | 59.71936 | 28.12353 | 25748 ft | 370 kts | 284° |
| 2026-04-26 19:57 | 59.72451 | 28.07371 | 25754 ft | 369 kts | 284° |
| 2026-04-26 19:57 | 59.72961 | 28.02389 | 25772 ft | 369 kts | 285° |
| 2026-04-26 19:57 | 59.73468 | 27.97394 | 25768 ft | 369 kts | 285° |
| 2026-04-26 19:57 | 59.73972 | 27.92414 | 25756 ft | 369 kts | 283° |
| 2026-04-26 19:58 | 59.74479 | 27.87414 | 25754 ft | 370 kts | 283° |
| 2026-04-26 19:58 | 59.74983 | 27.82415 | 25759 ft | 370 kts | 285° |
| 2026-04-26 19:58 | 59.75484 | 27.77413 | 25771 ft | 370 kts | 284° |
| 2026-04-26 19:58 | 59.75983 | 27.72410 | 25779 ft | 369 kts | 285° |
| 2026-04-26 19:59 | 59.76480 | 27.67415 | 25788 ft | 369 kts | 285° |
| 2026-04-26 19:59 | 59.77047 | 27.62456 | 25784 ft | 368 kts | 289° |
| 2026-04-26 19:59 | 59.77712 | 27.57560 | 25773 ft | 367 kts | 288° |
| 2026-04-26 19:59 | 59.78426 | 27.52683 | 25793 ft | 368 kts | 288° |
| 2026-04-26 20:00 | 59.79154 | 27.47810 | 25786 ft | 368 kts | 288° |
| 2026-04-26 20:00 | 59.79875 | 27.42924 | 25797 ft | 368 kts | 288° |
| 2026-04-26 20:00 | 59.80579 | 27.38036 | 25790 ft | 368 kts | 287° |
| 2026-04-26 20:00 | 59.81270 | 27.33135 | 25798 ft | 368 kts | 289° |
| 2026-04-26 20:01 | 59.81947 | 27.28246 | 25823 ft | 367 kts | 286° |
| 2026-04-26 20:01 | 59.82617 | 27.23352 | 25816 ft | 367 kts | 287° |
| 2026-04-26 20:01 | 59.83275 | 27.18523 | 25816 ft | 366 kts | 288° |
| 2026-04-26 20:01 | 59.83942 | 27.13621 | 25816 ft | 367 kts | 288° |
| 2026-04-26 20:02 | 59.84610 | 27.08718 | 25802 ft | 367 kts | 287° |
| 2026-04-26 20:02 | 59.85277 | 27.03830 | 25813 ft | 366 kts | 287° |
| 2026-04-26 20:02 | 59.85941 | 26.98941 | 25822 ft | 366 kts | 288° |
| 2026-04-26 20:02 | 59.86380 | 26.95697 | 25810 ft | 366 kts | 288° |
| 2026-04-26 20:03 | 59.87259 | 26.89161 | 25818 ft | 365 kts | 288° |
| 2026-04-26 20:03 | 59.87918 | 26.84258 | 25814 ft | 365 kts | 288° |
| 2026-04-26 20:03 | 59.88574 | 26.79379 | 25814 ft | 365 kts | 288° |
| 2026-04-26 20:03 | 59.89217 | 26.74557 | 25816 ft | 365 kts | 287° |
| 2026-04-26 20:04 | 59.89868 | 26.69664 | 25819 ft | 365 kts | 288° |
| 2026-04-26 20:04 | 59.90519 | 26.64773 | 25826 ft | 365 kts | 288° |
| 2026-04-26 20:04 | 59.91175 | 26.59819 | 25812 ft | 365 kts | 288° |
| 2026-04-26 20:04 | 59.91809 | 26.54997 | 25815 ft | 365 kts | 288° |
| 2026-04-26 20:05 | 59.92451 | 26.50113 | 25837 ft | 364 kts | 288° |
| 2026-04-26 20:05 | 59.93093 | 26.45228 | 25827 ft | 364 kts | 288° |
| 2026-04-26 20:05 | 59.93734 | 26.40342 | 25830 ft | 364 kts | 287° |
| 2026-04-26 20:05 | 59.94374 | 26.35444 | 25825 ft | 365 kts | 288° |
| 2026-04-26 20:06 | 59.95010 | 26.30551 | 25828 ft | 365 kts | 288° |
| 2026-04-26 20:06 | 59.95644 | 26.25638 | 25844 ft | 365 kts | 287° |
| 2026-04-26 20:06 | 59.96271 | 26.20725 | 25833 ft | 365 kts | 288° |
| 2026-04-26 20:06 | 59.96898 | 26.15817 | 25850 ft | 367 kts | 288° |
| 2026-04-26 20:07 | 59.97710 | 26.10897 | 25718 ft | 376 kts | 296° |
| 2026-04-26 20:07 | 59.98964 | 26.06329 | 24956 ft | 376 kts | 304° |
| 2026-04-26 20:07 | 60.00356 | 26.01927 | 24278 ft | 373 kts | 305° |
| 2026-04-26 20:07 | 60.01735 | 25.97578 | 23746 ft | 367 kts | 305° |
| 2026-04-26 20:08 | 60.03099 | 25.93256 | 23055 ft | 365 kts | 304° |
| 2026-04-26 20:08 | 60.04434 | 25.88988 | 22513 ft | 359 kts | 304° |
| 2026-04-26 20:08 | 60.05720 | 25.84844 | 22001 ft | 353 kts | 304° |
| 2026-04-26 20:08 | 60.07002 | 25.80688 | 21482 ft | 348 kts | 304° |
| 2026-04-26 20:09 | 60.08262 | 25.76590 | 20977 ft | 343 kts | 303° |
| 2026-04-26 20:09 | 60.09504 | 25.72540 | 20473 ft | 340 kts | 303° |
| 2026-04-26 20:09 | 60.10736 | 25.68525 | 19972 ft | 336 kts | 303° |
| 2026-04-26 20:09 | 60.11956 | 25.64544 | 19514 ft | 332 kts | 303° |
| 2026-04-26 20:10 | 60.13139 | 25.60685 | 19391 ft | 318 kts | 304° |
| 2026-04-26 20:10 | 60.14260 | 25.56921 | 19016 ft | 314 kts | 302° |
| 2026-04-26 20:10 | 60.15338 | 25.53114 | 18614 ft | 311 kts | 301° |
| 2026-04-26 20:10 | 60.16392 | 25.49284 | 18115 ft | 312 kts | 301° |
| 2026-04-26 20:11 | 60.17416 | 25.45522 | 17821 ft | 303 kts | 302° |
| 2026-04-26 20:11 | 60.18425 | 25.41820 | 17388 ft | 299 kts | 302° |
| 2026-04-26 20:11 | 60.19421 | 25.38190 | 16613 ft | 295 kts | 302° |
| 2026-04-26 20:12 | 60.21385 | 25.31085 | 15302 ft | 292 kts | 302° |
| 2026-04-26 20:12 | 60.22367 | 25.27525 | 14954 ft | 289 kts | 302° |
| 2026-04-26 20:12 | 60.23347 | 25.23958 | 14508 ft | 290 kts | 302° |
| 2026-04-26 20:12 | 60.24316 | 25.20424 | 14175 ft | 287 kts | 302° |
| 2026-04-26 20:13 | 60.25276 | 25.16907 | 13803 ft | 286 kts | 300° |
| 2026-04-26 20:13 | 60.25887 | 25.13074 | 13393 ft | 291 kts | 281° |
| 2026-04-26 20:13 | 60.25806 | 25.08972 | 12983 ft | 298 kts | 262° |
| 2026-04-26 20:13 | 60.25015 | 25.05121 | 12410 ft | 301 kts | 240° |
| 2026-04-26 20:14 | 60.23654 | 25.01882 | 11594 ft | 304 kts | 231° |
| 2026-04-26 20:14 | 60.22215 | 24.98761 | 10802 ft | 303 kts | 231° |
| 2026-04-26 20:14 | 60.20807 | 24.95708 | 10135 ft | 299 kts | 231° |
| 2026-04-26 20:14 | 60.19400 | 24.92645 | 9578 ft | 297 kts | 232° |
| 2026-04-26 20:15 | 60.18008 | 24.89607 | 9041 ft | 294 kts | 232° |
| 2026-04-26 20:15 | 60.16634 | 24.86609 | 8591 ft | 288 kts | 232° |
| 2026-04-26 20:15 | 60.15313 | 24.83738 | 8420 ft | 270 kts | 233° |
| 2026-04-26 20:15 | 60.14255 | 24.80829 | 8146 ft | 248 kts | 246° |
| 2026-04-26 20:16 | 60.13182 | 24.77951 | 7931 ft | 259 kts | 233° |
| 2026-04-26 20:16 | 60.11926 | 24.75391 | 7726 ft | 255 kts | 231° |
| 2026-04-26 20:16 | 60.10663 | 24.72916 | 7507 ft | 253 kts | 230° |
| 2026-04-26 20:16 | 60.09403 | 24.70467 | 7295 ft | 252 kts | 230° |
| 2026-04-26 20:17 | 60.08143 | 24.68030 | 7092 ft | 251 kts | 230° |
| 2026-04-26 20:17 | 60.06887 | 24.65609 | 6853 ft | 250 kts | 230° |
| 2026-04-26 20:17 | 60.05669 | 24.63166 | 6531 ft | 243 kts | 240° |
| 2026-04-26 20:17 | 60.05112 | 24.61319 | 6432 ft | 227 kts | 255° |
| 2026-04-26 20:18 | 60.04813 | 24.57472 | 6263 ft | 197 kts | 285° |
| 2026-04-26 20:18 | 60.05180 | 24.54964 | 6102 ft | 182 kts | 304° |
| 2026-04-26 20:18 | 60.05898 | 24.52972 | 5926 ft | 175 kts | 321° |
| 2026-04-26 20:18 | 60.06872 | 24.51585 | 5753 ft | 170 kts | 337° |
| 2026-04-26 20:19 | 60.08006 | 24.50872 | 5625 ft | 171 kts | 352° |
| 2026-04-26 20:19 | 60.09178 | 24.50896 | 5432 ft | 171 kts | 6° |
| 2026-04-26 20:19 | 60.10357 | 24.51272 | 5223 ft | 171 kts | 6° |
| 2026-04-26 20:19 | 60.11535 | 24.51630 | 5011 ft | 171 kts | 6° |
| 2026-04-26 20:20 | 60.12695 | 24.52133 | 4791 ft | 172 kts | 14° |
| 2026-04-26 20:20 | 60.13798 | 24.53097 | 4552 ft | 175 kts | 24° |
| 2026-04-26 20:20 | 60.14823 | 24.54541 | 4175 ft | 186 kts | 35° |
| 2026-04-26 20:20 | 60.15743 | 24.56442 | 3763 ft | 191 kts | 41° |
| 2026-04-26 20:21 | 60.16616 | 24.58358 | 3609 ft | 178 kts | 40° |
| 2026-04-26 20:21 | 60.17429 | 24.60141 | 3568 ft | 170 kts | 40° |
| 2026-04-26 20:21 | 60.18224 | 24.61871 | 3536 ft | 168 kts | 40° |
| 2026-04-26 20:21 | 60.19018 | 24.63590 | 3476 ft | 168 kts | 39° |
| 2026-04-26 20:22 | 60.19810 | 24.65307 | 3414 ft | 168 kts | 40° |
| 2026-04-26 20:22 | 60.20591 | 24.67011 | 3345 ft | 163 kts | 39° |
| 2026-04-26 20:22 | 60.21363 | 24.68689 | 3101 ft | 166 kts | 40° |
| 2026-04-26 20:22 | 60.22161 | 24.70425 | 2846 ft | 171 kts | 40° |
| 2026-04-26 20:23 | 60.22983 | 24.72213 | 2560 ft | 176 kts | 40° |
| 2026-04-26 20:23 | 60.23808 | 24.74011 | 2340 ft | 176 kts | 40° |
| 2026-04-26 20:23 | 60.24630 | 24.75808 | 2150 ft | 171 kts | 40° |
| 2026-04-26 20:23 | 60.25407 | 24.77510 | 1949 ft | 157 kts | 39° |
| 2026-04-26 20:24 | 60.26111 | 24.79052 | 1752 ft | 143 kts | 39° |
| 2026-04-26 20:24 | 60.26758 | 24.80465 | 1541 ft | 131 kts | 39° |
| 2026-04-26 20:24 | 60.27356 | 24.81771 | 1354 ft | 122 kts | 39° |
| 2026-04-26 20:24 | 60.27929 | 24.83020 | 1178 ft | 121 kts | 39° |
| 2026-04-26 20:25 | 60.28497 | 24.84269 | 972 ft | 124 kts | 41° |
| 2026-04-26 20:25 | 60.28698 | 24.84699 | 900 ft | 125 kts | 41° |
| 2026-04-26 20:25 | 60.29698 | 24.86890 | 632 ft | 130 kts | 44° |
| 2026-04-26 20:25 | 60.30312 | 24.88257 | 464 ft | 133 kts | 40° |
| 2026-04-26 20:26 | 60.30947 | 24.89616 | 281 ft | 132 kts | 43° |
| 2026-04-26 20:26 | 60.31553 | 24.90998 | 147 ft | 126 kts | 34° |
| 2026-04-26 20:26 | 60.32041 | 24.92017 | 154 ft | 76 kts | 48° |
| 2026-04-26 20:26 | 60.32327 | 24.92657 | 170 ft | 55 kts | 48° |
| 2026-04-26 20:27 | 60.32572 | 24.93199 | 178 ft | 49 kts | 47° |
| 2026-04-26 20:27 | 60.32796 | 24.93686 | 181 ft | 46 kts | 47° |
| 2026-04-26 20:27 | 60.32963 | 24.94068 | 190 ft | 30 kts | 46° |
| 2026-04-26 20:27 | 60.33049 | 24.94355 | 189 ft | 19 kts | 89° |
| 2026-04-26 20:28 | 60.33045 | 24.94615 | 184 ft | 1 kts | 92° |
| 2026-04-26 20:28 | 60.33044 | 24.94635 | 183 ft | 0 kts | 92° |
| 2026-04-26 20:28 | 60.33044 | 24.94643 | 183 ft | 0 kts | 92° |